createdAt,value
2023-04-10T00:00:57.882Z,69.26
2023-04-10T00:03:29.000Z,69.13
2023-04-10T00:05:59.876Z,69.28
2023-04-10T00:08:33.093Z,69.13
2023-04-10T00:11:07.064Z,69.47
2023-04-10T00:13:41.007Z,69.54
2023-04-10T00:16:12.007Z,69.68
2023-04-10T00:18:45.128Z,69.72
2023-04-10T00:21:15.920Z,69.67
2023-04-10T00:24:02.745Z,69.66
2023-04-10T00:26:33.717Z,69.69
2023-04-10T00:29:05.073Z,69.61
2023-04-10T00:31:35.724Z,69.98
2023-04-10T00:34:07.217Z,69.74
2023-04-10T00:36:38.384Z,70.11
2023-04-10T00:39:11.722Z,70.04
2023-04-10T00:41:42.515Z,70.21
2023-04-10T00:44:13.511Z,70.12
2023-04-10T00:46:44.707Z,69.96
2023-04-10T00:49:15.703Z,70.08
2023-04-10T00:51:47.377Z,70.28
2023-04-10T00:54:21.163Z,70.09
2023-04-10T00:56:53.175Z,70.09
2023-04-10T00:59:24.727Z,70.24
2023-04-10T01:01:56.003Z,70.42
2023-04-10T01:04:28.901Z,70.39
2023-04-10T01:07:06.538Z,70.34
2023-04-10T01:09:47.660Z,70.44
2023-04-10T01:12:32.875Z,70.23
2023-04-10T01:15:10.954Z,70.48
2023-04-10T01:17:46.992Z,70.27
2023-04-10T01:20:22.506Z,70.35
2023-04-10T01:23:12.654Z,70.28
2023-04-10T01:25:51.812Z,70.45
2023-04-10T01:28:51.761Z,70.35
2023-04-10T01:31:28.495Z,70.37
2023-04-10T01:34:05.396Z,70.34
2023-04-10T01:36:40.741Z,70.30
2023-04-10T01:39:15.149Z,70.37
2023-04-10T01:41:48.266Z,70.52
2023-04-10T01:44:25.792Z,70.70
2023-04-10T01:46:58.354Z,70.54
2023-04-10T01:49:31.632Z,70.41
2023-04-10T01:52:08.734Z,70.68
2023-04-10T01:54:40.276Z,70.52
2023-04-10T01:57:11.014Z,70.57
2023-04-10T01:59:55.613Z,70.74
2023-04-10T02:02:26.840Z,71.07
2023-04-10T02:04:57.704Z,70.85
2023-04-10T02:07:34.723Z,70.71
2023-04-10T02:10:12.910Z,70.88
2023-04-10T02:12:54.558Z,70.79
2023-04-10T02:15:34.210Z,70.83
2023-04-10T02:18:08.410Z,70.85
2023-04-10T02:20:39.825Z,71.19
2023-04-10T02:23:11.933Z,71.14
2023-04-10T02:25:42.832Z,70.99
2023-04-10T02:28:13.524Z,70.70
2023-04-10T02:30:46.829Z,70.62
2023-04-10T02:33:17.549Z,70.65
2023-04-10T02:35:49.034Z,70.70
2023-04-10T02:38:19.637Z,70.92
2023-04-10T02:40:50.571Z,70.95
2023-04-10T02:43:21.830Z,70.87
2023-04-10T02:45:55.846Z,70.78
2023-04-10T02:48:30.260Z,70.64
2023-04-10T02:51:05.074Z,70.65
2023-04-10T02:53:37.419Z,70.79
2023-04-10T02:56:11.945Z,70.95
2023-04-10T02:58:46.386Z,71.98
2023-04-10T03:01:22.450Z,70.83
2023-04-10T03:03:53.841Z,70.80
2023-04-10T03:06:30.191Z,70.76
2023-04-10T03:09:01.744Z,71.05
2023-04-10T03:11:32.436Z,70.70
2023-04-10T03:14:03.322Z,71.03
2023-04-10T03:16:36.662Z,70.94
2023-04-10T03:19:08.328Z,70.85
2023-04-10T03:21:39.216Z,70.81
2023-04-10T03:24:10.047Z,70.99
2023-04-10T03:26:40.949Z,70.92
2023-04-10T03:29:11.545Z,71.08
2023-04-10T03:31:44.885Z,70.95
2023-04-10T03:34:15.891Z,70.74
2023-04-10T03:36:46.990Z,70.84
2023-04-10T03:39:18.843Z,70.75
2023-04-10T03:41:49.860Z,70.49
2023-04-10T03:44:21.222Z,70.69
2023-04-10T03:46:54.680Z,70.50
2023-04-10T03:49:25.358Z,70.69
2023-04-10T03:52:04.722Z,70.39
2023-04-10T03:54:35.757Z,70.52
2023-04-10T03:57:06.811Z,70.58
2023-04-10T03:59:38.968Z,70.43
2023-04-10T04:02:17.415Z,70.16
2023-04-10T04:04:48.776Z,70.30
2023-04-10T04:07:45.579Z,70.48
2023-04-10T04:10:33.495Z,70.32
2023-04-10T04:13:27.651Z,70.50
2023-04-10T04:16:11.184Z,70.37
2023-04-10T04:19:14.004Z,70.35
2023-04-10T04:22:04.751Z,70.37
2023-04-10T04:24:54.024Z,70.37
2023-04-10T04:27:54.052Z,70.58
2023-04-10T04:30:44.931Z,70.42
2023-04-10T04:33:25.949Z,70.55
2023-04-10T04:36:09.338Z,70.35
2023-04-10T04:38:45.750Z,70.39
2023-04-10T04:41:35.690Z,70.40
2023-04-10T04:44:15.562Z,70.53
2023-04-10T04:47:12.053Z,70.37
2023-04-10T04:50:15.696Z,70.61
2023-04-10T04:53:07.827Z,70.64
2023-04-10T04:56:05.136Z,70.42
2023-04-10T04:58:41.463Z,70.32
2023-04-10T05:01:32.234Z,70.39
2023-04-10T05:04:21.768Z,70.34
2023-04-10T05:07:00.791Z,70.19
2023-04-10T05:09:56.983Z,70.01
2023-04-10T05:12:27.902Z,70.17
2023-04-10T05:15:11.288Z,70.08
2023-04-10T05:17:55.039Z,69.71
2023-04-10T05:20:56.970Z,69.77
2023-04-10T05:23:40.899Z,69.76
2023-04-10T05:26:24.959Z,69.19
2023-04-10T05:29:16.306Z,69.31
2023-04-10T05:32:17.157Z,69.06
2023-04-10T05:35:14.444Z,68.96
2023-04-10T05:37:51.625Z,68.83
2023-04-10T05:40:51.390Z,67.60
2023-04-10T05:43:43.278Z,64.93
2023-04-10T05:46:28.406Z,62.83
2023-04-10T05:49:27.985Z,62.04
2023-04-10T05:52:13.041Z,62.08
2023-04-10T05:54:46.442Z,62.63
2023-04-10T05:57:17.480Z,63.52
2023-04-10T06:00:10.836Z,64.18
2023-04-10T06:02:45.343Z,64.48
2023-04-10T06:05:26.083Z,65.55
2023-04-10T06:08:02.790Z,65.52
2023-04-10T06:10:33.686Z,65.27
2023-04-10T06:13:04.525Z,65.20
2023-04-10T06:15:38.476Z,65.26
2023-04-10T06:18:09.338Z,65.33
2023-04-10T06:20:41.611Z,65.30
2023-04-10T06:23:13.458Z,65.37
2023-04-10T06:25:44.302Z,65.08
2023-04-10T06:28:14.889Z,65.23
2023-04-10T06:30:51.414Z,65.32
2023-04-10T06:33:26.249Z,65.51
2023-04-10T06:35:57.910Z,65.47
2023-04-10T06:38:29.367Z,65.60
2023-04-10T06:41:00.998Z,65.76
2023-04-10T06:43:32.324Z,65.68
2023-04-10T06:46:06.789Z,65.66
2023-04-10T06:48:37.817Z,65.60
2023-04-10T06:51:08.915Z,65.49
2023-04-10T06:53:39.921Z,65.36
2023-04-10T06:56:11.417Z,64.99
2023-04-10T06:58:42.390Z,65.08
2023-04-10T07:01:17.913Z,64.53
2023-04-10T07:03:48.721Z,64.44
2023-04-10T07:06:19.762Z,64.08
2023-04-10T07:08:52.060Z,64.17
2023-04-10T07:11:22.816Z,64.09
2023-04-10T07:13:53.966Z,64.01
2023-04-10T07:16:29.691Z,63.69
2023-04-10T07:19:00.766Z,63.72
2023-04-10T07:21:33.181Z,63.72
2023-04-10T07:24:04.335Z,63.62
2023-04-10T07:26:34.980Z,63.60
2023-04-10T07:29:05.655Z,63.59
2023-04-10T07:31:38.943Z,63.52
2023-04-10T07:34:09.705Z,63.30
2023-04-10T07:36:40.432Z,63.38
2023-04-10T07:39:11.352Z,63.23
2023-04-10T07:41:42.340Z,62.82
2023-04-10T07:44:13.599Z,62.90
2023-04-10T07:46:47.756Z,62.87
2023-04-10T07:49:18.329Z,62.72
2023-04-10T07:51:48.970Z,62.39
2023-04-10T07:54:19.764Z,62.51
2023-04-10T07:56:50.347Z,62.23
2023-04-10T07:59:21.036Z,62.24
2023-04-10T08:01:54.442Z,62.11
2023-04-10T08:04:25.421Z,62.13
2023-04-10T08:06:56.376Z,62.01
2023-04-10T08:09:27.289Z,62.00
2023-04-10T08:11:59.445Z,61.61
2023-04-10T08:14:30.430Z,61.97
2023-04-10T08:17:03.955Z,61.53
2023-04-10T08:19:36.295Z,61.43
2023-04-10T08:22:10.072Z,61.57
2023-04-10T08:24:40.638Z,61.33
2023-04-10T08:27:11.184Z,61.26
2023-04-10T08:29:41.782Z,61.13
2023-04-10T08:32:15.020Z,61.02
2023-04-10T08:34:45.696Z,60.87
2023-04-10T08:37:16.643Z,60.70
2023-04-10T08:39:47.784Z,60.69
2023-04-10T08:42:18.695Z,60.44
2023-04-10T08:44:52.505Z,60.48
2023-04-10T08:47:29.799Z,60.45
2023-04-10T08:50:04.097Z,60.45
2023-04-10T08:52:37.923Z,60.53
2023-04-10T08:55:11.942Z,60.05
2023-04-10T08:57:48.010Z,60.36
2023-04-10T09:00:25.233Z,60.16
2023-04-10T09:02:59.237Z,59.84
2023-04-10T09:05:31.036Z,59.74
2023-04-10T09:08:01.628Z,60.04
2023-04-10T09:10:32.263Z,59.87
2023-04-10T09:13:03.207Z,59.95
2023-04-10T09:15:33.962Z,59.94
2023-04-10T09:18:07.420Z,59.53
2023-04-10T09:20:38.119Z,59.15
2023-04-10T09:23:23.890Z,58.92
2023-04-10T09:25:54.592Z,58.87
2023-04-10T09:28:25.391Z,58.80
2023-04-10T09:30:56.067Z,59.15
2023-04-10T09:33:30.722Z,59.01
2023-04-10T09:36:04.442Z,58.62
2023-04-10T09:38:36.327Z,58.41
2023-04-10T09:41:10.938Z,58.75
2023-04-10T09:43:43.771Z,57.79
2023-04-10T09:46:14.862Z,57.83
2023-04-10T09:48:59.701Z,57.57
2023-04-10T09:51:34.940Z,58.09
2023-04-10T09:54:07.086Z,57.95
2023-04-10T09:56:43.113Z,57.52
2023-04-10T09:59:16.653Z,57.48
2023-04-10T10:01:47.841Z,58.06
2023-04-10T10:04:21.315Z,58.07
2023-04-10T10:06:52.630Z,57.63
2023-04-10T10:09:23.922Z,57.47
2023-04-10T10:11:55.933Z,57.13
2023-04-10T10:14:29.076Z,57.41
2023-04-10T10:17:02.187Z,57.27
2023-04-10T10:19:44.360Z,56.61
2023-04-10T10:22:17.158Z,56.76
2023-04-10T10:24:50.516Z,56.90
2023-04-10T10:27:22.469Z,56.99
2023-04-10T10:29:56.125Z,57.16
2023-04-10T10:32:27.868Z,56.78
2023-04-10T10:35:02.317Z,56.96
2023-04-10T10:37:33.312Z,56.95
2023-04-10T10:40:12.572Z,55.53
2023-04-10T10:42:49.713Z,56.23
2023-04-10T10:45:24.289Z,55.60
2023-04-10T10:47:57.117Z,56.15
2023-04-10T10:50:53.871Z,54.58
2023-04-10T10:53:41.791Z,55.50
2023-04-10T10:56:36.268Z,55.46
2023-04-10T10:59:06.938Z,55.93
2023-04-10T11:01:37.816Z,55.79
2023-04-10T11:04:38.679Z,54.51
2023-04-10T11:07:11.883Z,55.31
2023-04-10T11:09:52.792Z,54.43
2023-04-10T11:12:26.067Z,55.89
2023-04-10T11:15:02.310Z,55.42
2023-04-10T11:17:57.124Z,53.40
2023-04-10T11:20:28.886Z,55.86
2023-04-10T11:23:24.362Z,54.30
2023-04-10T11:25:56.951Z,54.81
2023-04-10T11:28:41.519Z,54.70
2023-04-10T11:31:23.535Z,55.32
2023-04-10T11:34:05.115Z,54.37
2023-04-10T11:36:36.990Z,55.25
2023-04-10T11:39:13.417Z,55.15
2023-04-10T11:41:46.052Z,55.25
2023-04-10T11:44:21.357Z,54.42
2023-04-10T11:46:52.308Z,55.28
2023-04-10T11:49:24.437Z,54.43
2023-04-10T11:51:55.618Z,54.52
2023-04-10T11:54:30.306Z,55.02
2023-04-10T11:57:02.768Z,54.51
2023-04-10T11:59:35.263Z,54.57
2023-04-10T12:02:10.663Z,54.53
2023-04-10T12:04:42.172Z,54.36
2023-04-10T12:07:13.080Z,53.88
2023-04-10T12:09:46.602Z,54.49
2023-04-10T12:12:17.570Z,54.36
2023-04-10T12:14:48.765Z,55.01
2023-04-10T12:17:20.370Z,54.82
2023-04-10T12:19:51.776Z,54.63
2023-04-10T12:22:22.909Z,53.85
2023-04-10T12:24:56.820Z,54.24
2023-04-10T12:27:29.763Z,53.86
2023-04-10T12:30:01.816Z,53.32
2023-04-10T12:32:32.575Z,53.55
2023-04-10T12:35:04.308Z,53.43
2023-04-10T12:37:50.919Z,53.46
2023-04-10T12:40:24.361Z,54.14
2023-04-10T12:42:55.048Z,53.40
2023-04-10T12:45:43.926Z,53.37
2023-04-10T12:48:14.586Z,54.16
2023-04-10T12:50:52.094Z,54.33
2023-04-10T12:53:22.743Z,54.30
2023-04-10T12:56:05.182Z,54.30
2023-04-10T12:58:37.208Z,54.13
2023-04-10T13:01:09.747Z,54.15
2023-04-10T13:03:40.903Z,54.13
2023-04-10T13:06:11.948Z,54.24
2023-04-10T13:08:42.522Z,53.91
2023-04-10T13:11:15.784Z,54.02
2023-04-10T13:13:46.473Z,54.21
2023-04-10T13:16:17.267Z,53.89
2023-04-10T13:18:47.888Z,54.56
2023-04-10T13:21:23.130Z,54.15
2023-04-10T13:23:53.877Z,53.85
2023-04-10T13:26:27.305Z,54.10
2023-04-10T13:28:58.049Z,53.82
2023-04-10T13:31:28.695Z,52.96
2023-04-10T13:33:59.312Z,53.73
2023-04-10T13:36:30.328Z,53.52
2023-04-10T13:39:01.044Z,53.96
2023-04-10T13:41:34.300Z,53.93
2023-04-10T13:44:05.058Z,53.97
2023-04-10T13:46:35.790Z,53.49
2023-04-10T13:49:06.602Z,53.67
2023-04-10T13:51:37.337Z,53.45
2023-04-10T13:54:09.343Z,52.73
2023-04-10T13:56:42.807Z,52.36
2023-04-10T13:59:13.536Z,53.19
2023-04-10T14:01:44.280Z,52.92
2023-04-10T14:04:15.281Z,52.85
2023-04-10T14:06:45.900Z,53.04
2023-04-10T14:09:16.731Z,53.17
2023-04-10T14:11:49.927Z,53.80
2023-04-10T14:14:20.674Z,53.64
2023-04-10T14:16:51.378Z,53.32
2023-04-10T14:19:22.241Z,53.46
2023-04-10T14:21:53.041Z,53.28
2023-04-10T14:24:24.451Z,53.71
2023-04-10T14:27:01.009Z,52.90
2023-04-10T14:32:05.559Z,52.96
2023-04-10T14:34:36.712Z,53.54
2023-04-10T14:37:07.639Z,53.69
2023-04-10T14:39:38.356Z,54.34
2023-04-10T14:42:11.626Z,53.70
2023-04-10T14:44:42.507Z,53.64
2023-04-10T14:47:13.961Z,53.90
2023-04-10T14:49:44.782Z,53.28
2023-04-10T14:52:15.575Z,52.27
2023-04-10T14:54:46.356Z,52.34
2023-04-10T14:57:19.693Z,52.61
2023-04-10T14:59:50.405Z,52.79
2023-04-10T15:02:21.294Z,52.91
2023-04-10T15:04:52.565Z,52.25
2023-04-10T15:07:24.539Z,52.67
2023-04-10T15:09:59.812Z,53.14
2023-04-10T15:12:33.219Z,52.72
2023-04-10T15:15:03.906Z,53.16
2023-04-10T15:17:34.575Z,53.68
2023-04-10T15:20:05.233Z,52.76
2023-04-10T15:22:36.242Z,53.46
2023-04-10T15:25:07.552Z,52.96
2023-04-10T15:27:41.079Z,52.48
2023-04-10T15:30:12.465Z,51.61
2023-04-10T15:32:43.357Z,52.35
2023-04-10T15:35:14.089Z,52.15
2023-04-10T15:37:44.859Z,51.79
2023-04-10T15:40:18.332Z,51.90
2023-04-10T15:42:51.749Z,52.15
2023-04-10T15:45:22.526Z,52.32
2023-04-10T15:47:53.315Z,51.96
2023-04-10T15:50:24.122Z,52.65
2023-04-10T15:52:54.724Z,53.26
2023-04-10T15:55:25.492Z,54.05
2023-04-10T15:58:00.361Z,53.94
2023-04-10T16:00:32.406Z,53.90
2023-04-10T16:03:03.563Z,53.58
2023-04-10T16:05:34.624Z,53.80
2023-04-10T16:08:06.139Z,54.23
2023-04-10T16:10:36.829Z,54.23
2023-04-10T16:13:10.065Z,54.39
2023-04-10T16:15:41.325Z,54.01
2023-04-10T16:18:11.994Z,53.99
2023-04-10T16:20:44.232Z,54.02
2023-04-10T16:23:14.869Z,53.64
2023-04-10T16:25:45.588Z,53.59
2023-04-10T16:28:18.887Z,53.64
2023-04-10T16:30:49.435Z,53.67
2023-04-10T16:33:20.069Z,53.88
2023-04-10T16:35:50.696Z,53.79
2023-04-10T16:38:21.512Z,53.82
2023-04-10T16:40:52.537Z,53.76
2023-04-10T16:43:26.049Z,54.15
2023-04-10T16:45:59.561Z,53.60
2023-04-10T16:48:30.433Z,53.45
2023-04-10T16:51:06.414Z,53.71
2023-04-10T16:53:38.209Z,53.73
2023-04-10T16:56:09.161Z,53.83
2023-04-10T16:58:42.991Z,53.54
2023-04-10T17:01:20.304Z,53.21
2023-04-10T17:03:51.672Z,53.65
2023-04-10T17:06:26.008Z,53.80
2023-04-10T17:08:57.272Z,53.59
2023-04-10T17:11:28.548Z,53.54
2023-04-10T17:14:01.756Z,53.82
2023-04-10T17:16:32.737Z,53.61
2023-04-10T17:19:03.623Z,54.14
2023-04-10T17:21:37.135Z,54.31
2023-04-10T17:24:17.548Z,53.89
2023-04-10T17:26:49.586Z,54.15
2023-04-10T17:29:22.777Z,54.30
2023-04-10T17:31:53.498Z,54.00
2023-04-10T17:34:24.292Z,54.36
2023-04-10T17:36:55.201Z,54.34
2023-04-10T17:39:26.812Z,54.43
2023-04-10T17:41:57.630Z,54.73
2023-04-10T17:44:30.998Z,55.01
2023-04-10T17:47:01.992Z,54.70
2023-04-10T17:49:33.488Z,54.86
2023-04-10T17:52:04.671Z,54.81
2023-04-10T17:54:36.899Z,54.58
2023-04-10T17:57:08.098Z,54.98
2023-04-10T17:59:41.791Z,55.23
2023-04-10T18:02:12.984Z,55.20
2023-04-10T18:04:44.075Z,55.42
2023-04-10T18:07:15.089Z,55.61
2023-04-10T18:09:45.940Z,55.72
2023-04-10T18:12:16.593Z,55.82
2023-04-10T18:14:51.093Z,55.67
2023-04-10T18:17:22.531Z,55.34
2023-04-10T18:19:53.486Z,55.33
2023-04-10T18:22:24.751Z,55.44
2023-04-10T18:24:55.621Z,55.58
2023-04-10T18:27:27.111Z,55.50
2023-04-10T18:30:00.896Z,55.55
2023-04-10T18:32:31.614Z,55.59
2023-04-10T18:35:03.846Z,55.44
2023-04-10T18:37:36.044Z,55.44
2023-04-10T18:40:15.885Z,55.28
2023-04-10T18:42:47.650Z,55.20
2023-04-10T18:45:22.205Z,55.13
2023-04-10T18:49:46.217Z,55.46
2023-04-10T18:52:18.133Z,55.20
2023-04-10T18:54:49.839Z,55.24
2023-04-10T18:57:20.280Z,55.22
2023-04-10T18:59:50.876Z,55.30
2023-04-10T19:02:21.469Z,55.40
2023-04-10T19:04:56.564Z,55.24
2023-04-10T19:07:27.760Z,55.32
2023-04-10T19:09:58.403Z,55.39
2023-04-10T19:12:28.986Z,55.25
2023-04-10T19:14:59.621Z,55.25
2023-04-10T19:17:30.446Z,55.18
2023-04-10T19:20:04.405Z,54.85
2023-04-10T19:22:36.091Z,50.92
2023-04-10T19:25:07.726Z,54.83
2023-04-10T19:27:38.477Z,55.39
2023-04-10T19:30:14.474Z,54.89
2023-04-10T19:32:46.585Z,55.08
2023-04-10T19:35:21.151Z,55.22
2023-04-10T19:37:53.139Z,55.12
2023-04-10T19:40:24.332Z,55.08
2023-04-10T19:42:56.888Z,54.90
2023-04-10T19:45:29.699Z,54.81
2023-04-10T19:48:00.934Z,54.92
2023-04-10T19:50:35.875Z,55.13
2023-04-10T19:53:13.635Z,55.30
2023-04-10T19:55:48.911Z,55.25
2023-04-10T19:58:35.923Z,55.35
2023-04-10T20:01:12.749Z,55.22
2023-04-10T20:03:45.174Z,55.34
2023-04-10T20:06:29.041Z,55.43
2023-04-10T20:09:01.209Z,54.91
2023-04-10T20:11:33.771Z,54.84
2023-04-10T20:14:09.984Z,55.05
2023-04-10T20:16:48.757Z,54.78
2023-04-10T20:19:24.054Z,55.00
2023-04-10T20:22:20.574Z,54.97
2023-04-10T20:25:10.790Z,55.21
2023-04-10T20:28:00.417Z,54.34
2023-04-10T20:30:31.572Z,55.16
2023-04-10T20:33:03.054Z,55.29
2023-04-10T20:35:34.824Z,55.02
2023-04-10T20:38:08.424Z,55.34
2023-04-10T20:40:39.400Z,55.30
2023-04-10T20:43:16.231Z,55.38
2023-04-10T20:45:49.168Z,55.39
2023-04-10T20:48:21.026Z,55.50
2023-04-10T20:50:52.489Z,55.68
2023-04-10T20:53:27.270Z,55.48
2023-04-10T20:55:58.870Z,55.61
2023-04-10T20:58:30.617Z,55.75
2023-04-10T21:01:02.274Z,55.70
2023-04-10T21:03:39.525Z,55.64
2023-04-10T21:06:15.395Z,55.72
2023-04-10T21:08:53.700Z,55.91
2023-04-10T21:11:25.468Z,55.93
2023-04-10T21:13:59.175Z,55.84
2023-04-10T21:16:31.533Z,55.97
2023-04-10T21:19:04.195Z,55.83
2023-04-10T21:21:35.395Z,55.87
2023-04-10T21:24:10.063Z,55.77
2023-04-10T21:26:46.028Z,55.78
2023-04-10T21:29:19.036Z,55.97
2023-04-10T21:31:51.122Z,56.03
2023-04-10T21:34:23.594Z,55.97
2023-04-10T21:36:55.495Z,56.07
2023-04-10T21:39:30.460Z,56.08
2023-04-10T21:42:02.354Z,55.82
2023-04-10T21:44:34.147Z,55.45
2023-04-10T21:47:07.682Z,55.36
2023-04-10T21:49:39.268Z,55.30
2023-04-10T21:52:11.378Z,55.43
2023-04-10T21:54:47.991Z,55.69
2023-04-10T21:57:21.617Z,56.07
2023-04-10T21:59:53.676Z,56.52
2023-04-10T22:02:25.421Z,56.95
2023-04-10T22:04:56.670Z,57.89
2023-04-10T22:07:28.939Z,58.52
2023-04-10T22:10:04.463Z,59.11
2023-04-10T22:12:35.999Z,59.74
2023-04-10T22:15:11.402Z,60.49
2023-04-10T22:17:43.955Z,60.52
2023-04-10T22:20:15.964Z,60.60
2023-04-10T22:22:51.342Z,60.71
2023-04-10T22:25:27.327Z,61.01
2023-04-10T22:27:59.265Z,60.95
2023-04-10T22:30:30.916Z,61.20
2023-04-10T22:33:01.931Z,60.99
2023-04-10T22:35:33.983Z,61.13
2023-04-10T22:38:05.900Z,61.22
2023-04-10T22:40:40.580Z,61.34
2023-04-10T22:43:11.897Z,61.76
2023-04-10T22:45:44.328Z,61.71
2023-04-10T22:48:15.919Z,61.90
2023-04-10T22:50:47.762Z,62.02
2023-04-10T22:53:19.026Z,62.01
2023-04-10T22:58:54.203Z,63.51
2023-04-10T23:01:25.893Z,63.63
2023-04-10T23:04:08.463Z,63.72
2023-04-10T23:06:42.181Z,64.26
2023-04-10T23:09:16.069Z,64.79
2023-04-10T23:11:50.993Z,65.09
2023-04-10T23:14:23.984Z,65.24
2023-04-10T23:16:56.366Z,65.28
2023-04-10T23:19:28.614Z,65.54
2023-04-10T23:22:01.232Z,65.77
2023-04-10T23:24:32.659Z,66.02
2023-04-10T23:27:09.220Z,65.76
2023-04-10T23:29:42.655Z,65.82
2023-04-10T23:32:14.122Z,65.83
2023-04-10T23:34:48.654Z,65.62
2023-04-10T23:37:19.640Z,65.80
2023-04-10T23:39:51.182Z,65.44
2023-04-10T23:42:25.828Z,65.54
2023-04-10T23:44:57.293Z,65.39
2023-04-10T23:47:31.863Z,66.00
2023-04-10T23:50:03.613Z,66.17
2023-04-10T23:52:36.024Z,65.56
2023-04-10T23:55:09.618Z,65.31
2023-04-10T23:57:44.311Z,65.48
